sensor_id;sensor_type;location;lat;lon;timestamp;temperature;humidity
7646;DHT22;3864;48.180;14.178;2023-08-07T00:00:19;13.50;99.90
7646;DHT22;3864;48.180;14.178;2023-08-07T00:02:46;13.50;99.90
7646;DHT22;3864;48.180;14.178;2023-08-07T00:05:13;13.50;99.90
7646;DHT22;3864;48.180;14.178;2023-08-07T00:07:42;13.50;99.90
7646;DHT22;3864;48.180;14.178;2023-08-07T00:10:11;13.50;99.90
7646;DHT22;3864;48.180;14.178;2023-08-07T00:12:39;13.50;99.90
7646;DHT22;3864;48.180;14.178;2023-08-07T00:15:07;13.50;99.90
7646;DHT22;3864;48.180;14.178;2023-08-07T00:17:34;13.50;99.90
7646;DHT22;3864;48.180;14.178;2023-08-07T00:20:01;13.50;99.90
7646;DHT22;3864;48.180;14.178;2023-08-07T00:22:28;13.50;99.90
7646;DHT22;3864;48.180;14.178;2023-08-07T00:24:55;13.50;99.90
7646;DHT22;3864;48.180;14.178;2023-08-07T00:27:23;13.40;99.90
7646;DHT22;3864;48.180;14.178;2023-08-07T00:29:50;13.40;99.90
7646;DHT22;3864;48.180;14.178;2023-08-07T00:32:17;13.50;99.90
7646;DHT22;3864;48.180;14.178;2023-08-07T00:34:44;13.40;99.90
7646;DHT22;3864;48.180;14.178;2023-08-07T00:37:11;13.40;99.90
7646;DHT22;3864;48.180;14.178;2023-08-07T00:39:38;13.40;99.90
7646;DHT22;3864;48.180;14.178;2023-08-07T00:42:06;13.40;99.90
7646;DHT22;3864;48.180;14.178;2023-08-07T00:44:35;13.40;99.90
7646;DHT22;3864;48.180;14.178;2023-08-07T00:47:02;13.40;99.90
7646;DHT22;3864;48.180;14.178;2023-08-07T00:49:29;13.50;99.90
7646;DHT22;3864;48.180;14.178;2023-08-07T00:51:56;13.40;99.90
7646;DHT22;3864;48.180;14.178;2023-08-07T00:54:25;13.40;99.90
7646;DHT22;3864;48.180;14.178;2023-08-07T00:56:52;13.40;99.90
7646;DHT22;3864;48.180;14.178;2023-08-07T00:59:20;13.40;99.90
7646;DHT22;3864;48.180;14.178;2023-08-07T01:01:49;13.30;99.90
7646;DHT22;3864;48.180;14.178;2023-08-07T01:04:16;13.30;99.90
7646;DHT22;3864;48.180;14.178;2023-08-07T01:06:43;13.30;99.90
7646;DHT22;3864;48.180;14.178;2023-08-07T01:09:10;13.30;99.90
7646;DHT22;3864;48.180;14.178;2023-08-07T01:11:43;13.30;99.90
7646;DHT22;3864;48.180;14.178;2023-08-07T01:14:19;13.20;99.90
7646;DHT22;3864;48.180;14.178;2023-08-07T01:16:52;13.30;99.90
7646;DHT22;3864;48.180;14.178;2023-08-07T01:19:24;13.30;99.90
7646;DHT22;3864;48.180;14.178;2023-08-07T01:22:04;13.30;99.90
7646;DHT22;3864;48.180;14.178;2023-08-07T01:24:31;13.30;99.90
7646;DHT22;3864;48.180;14.178;2023-08-07T01:27:02;13.30;99.90
7646;DHT22;3864;48.180;14.178;2023-08-07T01:29:36;13.30;99.90
7646;DHT22;3864;48.180;14.178;2023-08-07T01:32:08;13.20;99.90
7646;DHT22;3864;48.180;14.178;2023-08-07T01:34:36;13.10;99.90
7646;DHT22;3864;48.180;14.178;2023-08-07T01:37:07;13.00;99.90
7646;DHT22;3864;48.180;14.178;2023-08-07T01:39:36;12.80;99.90
7646;DHT22;3864;48.180;14.178;2023-08-07T01:42:04;12.80;99.90
7646;DHT22;3864;48.180;14.178;2023-08-07T01:44:32;12.60;99.90
7646;DHT22;3864;48.180;14.178;2023-08-07T01:46:59;12.50;99.90
7646;DHT22;3864;48.180;14.178;2023-08-07T01:49:26;12.40;99.90
7646;DHT22;3864;48.180;14.178;2023-08-07T01:51:53;12.30;99.90
7646;DHT22;3864;48.180;14.178;2023-08-07T01:54:22;12.30;99.90
7646;DHT22;3864;48.180;14.178;2023-08-07T01:56:47;12.20;99.90
7646;DHT22;3864;48.180;14.178;2023-08-07T01:59:14;12.20;99.90
7646;DHT22;3864;48.180;14.178;2023-08-07T02:01:41;12.20;99.90
7646;DHT22;3864;48.180;14.178;2023-08-07T02:04:08;12.10;99.90
7646;DHT22;3864;48.180;14.178;2023-08-07T02:06:35;12.10;99.90
7646;DHT22;3864;48.180;14.178;2023-08-07T02:09:02;12.00;99.90
7646;DHT22;3864;48.180;14.178;2023-08-07T02:11:31;12.00;99.90
7646;DHT22;3864;48.180;14.178;2023-08-07T02:13:58;12.00;99.90
7646;DHT22;3864;48.180;14.178;2023-08-07T02:16:25;12.00;99.90
7646;DHT22;3864;48.180;14.178;2023-08-07T02:18:52;12.00;99.90
7646;DHT22;3864;48.180;14.178;2023-08-07T02:21:20;12.10;99.90
7646;DHT22;3864;48.180;14.178;2023-08-07T02:23:47;12.10;99.90
7646;DHT22;3864;48.180;14.178;2023-08-07T02:26:14;12.10;99.90
7646;DHT22;3864;48.180;14.178;2023-08-07T02:28:42;12.00;99.90
7646;DHT22;3864;48.180;14.178;2023-08-07T02:31:09;12.00;99.90
7646;DHT22;3864;48.180;14.178;2023-08-07T02:33:36;12.00;99.90
7646;DHT22;3864;48.180;14.178;2023-08-07T02:36:03;11.90;99.90
7646;DHT22;3864;48.180;14.178;2023-08-07T02:38:30;11.80;99.90
7646;DHT22;3864;48.180;14.178;2023-08-07T02:40:57;11.80;99.90
7646;DHT22;3864;48.180;14.178;2023-08-07T02:43:24;11.70;99.90
7646;DHT22;3864;48.180;14.178;2023-08-07T02:45:55;11.70;99.90
7646;DHT22;3864;48.180;14.178;2023-08-07T02:48:22;11.60;99.90
7646;DHT22;3864;48.180;14.178;2023-08-07T02:50:49;11.60;99.90
7646;DHT22;3864;48.180;14.178;2023-08-07T02:53:17;11.50;99.90
7646;DHT22;3864;48.180;14.178;2023-08-07T02:55:44;11.50;99.90
7646;DHT22;3864;48.180;14.178;2023-08-07T02:58:11;11.50;99.90
7646;DHT22;3864;48.180;14.178;2023-08-07T03:00:38;11.50;99.90
7646;DHT22;3864;48.180;14.178;2023-08-07T03:03:06;11.40;99.90
7646;DHT22;3864;48.180;14.178;2023-08-07T03:05:33;11.40;99.90
7646;DHT22;3864;48.180;14.178;2023-08-07T03:08:00;11.40;99.90
7646;DHT22;3864;48.180;14.178;2023-08-07T03:10:28;11.40;99.90
7646;DHT22;3864;48.180;14.178;2023-08-07T03:12:55;11.40;99.90
7646;DHT22;3864;48.180;14.178;2023-08-07T03:15:22;11.30;99.90
7646;DHT22;3864;48.180;14.178;2023-08-07T03:17:49;11.20;99.90
7646;DHT22;3864;48.180;14.178;2023-08-07T03:20:17;11.20;99.90
7646;DHT22;3864;48.180;14.178;2023-08-07T03:22:44;11.20;99.90
7646;DHT22;3864;48.180;14.178;2023-08-07T03:25:11;11.10;99.90
7646;DHT22;3864;48.180;14.178;2023-08-07T03:27:38;11.10;99.90
7646;DHT22;3864;48.180;14.178;2023-08-07T03:30:06;11.00;99.90
7646;DHT22;3864;48.180;14.178;2023-08-07T03:32:33;11.00;99.90
7646;DHT22;3864;48.180;14.178;2023-08-07T03:35:01;11.00;99.90
7646;DHT22;3864;48.180;14.178;2023-08-07T03:37:29;10.90;99.90
7646;DHT22;3864;48.180;14.178;2023-08-07T03:39:56;10.90;99.90
7646;DHT22;3864;48.180;14.178;2023-08-07T03:42:23;10.90;99.90
7646;DHT22;3864;48.180;14.178;2023-08-07T03:44:50;10.90;99.90
7646;DHT22;3864;48.180;14.178;2023-08-07T03:47:17;10.80;99.90
7646;DHT22;3864;48.180;14.178;2023-08-07T03:49:44;10.80;99.90
7646;DHT22;3864;48.180;14.178;2023-08-07T03:52:12;10.80;99.90
7646;DHT22;3864;48.180;14.178;2023-08-07T03:54:40;10.80;99.90
7646;DHT22;3864;48.180;14.178;2023-08-07T03:57:07;10.80;99.90
7646;DHT22;3864;48.180;14.178;2023-08-07T03:59:36;10.70;99.90
7646;DHT22;3864;48.180;14.178;2023-08-07T04:02:03;10.70;99.90
7646;DHT22;3864;48.180;14.178;2023-08-07T04:04:31;10.70;99.90
7646;DHT22;3864;48.180;14.178;2023-08-07T04:06:58;10.70;99.90
7646;DHT22;3864;48.180;14.178;2023-08-07T04:09:25;10.70;99.90
7646;DHT22;3864;48.180;14.178;2023-08-07T04:11:54;10.70;99.90
7646;DHT22;3864;48.180;14.178;2023-08-07T04:14:21;10.70;99.90
7646;DHT22;3864;48.180;14.178;2023-08-07T04:16:49;10.60;99.90
7646;DHT22;3864;48.180;14.178;2023-08-07T04:19:16;10.50;99.90
7646;DHT22;3864;48.180;14.178;2023-08-07T04:21:43;10.50;99.90
7646;DHT22;3864;48.180;14.178;2023-08-07T04:24:11;10.50;99.90
7646;DHT22;3864;48.180;14.178;2023-08-07T04:26:38;10.50;99.90
7646;DHT22;3864;48.180;14.178;2023-08-07T04:29:07;10.50;99.90
7646;DHT22;3864;48.180;14.178;2023-08-07T04:31:34;10.50;99.90
7646;DHT22;3864;48.180;14.178;2023-08-07T04:34:01;10.40;99.90
7646;DHT22;3864;48.180;14.178;2023-08-07T04:36:28;10.40;99.90
7646;DHT22;3864;48.180;14.178;2023-08-07T04:38:55;10.40;99.90
7646;DHT22;3864;48.180;14.178;2023-08-07T04:41:22;10.40;99.90
7646;DHT22;3864;48.180;14.178;2023-08-07T04:43:49;10.40;99.90
7646;DHT22;3864;48.180;14.178;2023-08-07T04:46:18;10.40;99.90
7646;DHT22;3864;48.180;14.178;2023-08-07T04:48:45;10.40;99.90
7646;DHT22;3864;48.180;14.178;2023-08-07T04:51:14;10.40;99.90
7646;DHT22;3864;48.180;14.178;2023-08-07T04:53:41;10.40;99.90
7646;DHT22;3864;48.180;14.178;2023-08-07T04:56:08;10.40;99.90
7646;DHT22;3864;48.180;14.178;2023-08-07T04:58:35;10.40;99.90
7646;DHT22;3864;48.180;14.178;2023-08-07T05:01:02;10.40;99.90
7646;DHT22;3864;48.180;14.178;2023-08-07T05:03:31;10.50;99.90
7646;DHT22;3864;48.180;14.178;2023-08-07T05:05:58;10.40;99.90
7646;DHT22;3864;48.180;14.178;2023-08-07T05:08:26;10.40;99.90
7646;DHT22;3864;48.180;14.178;2023-08-07T05:10:53;10.50;99.90
7646;DHT22;3864;48.180;14.178;2023-08-07T05:13:20;10.40;99.90
7646;DHT22;3864;48.180;14.178;2023-08-07T05:15:47;10.40;99.90
7646;DHT22;3864;48.180;14.178;2023-08-07T05:18:14;10.40;99.90
7646;DHT22;3864;48.180;14.178;2023-08-07T05:20:43;10.40;99.90
7646;DHT22;3864;48.180;14.178;2023-08-07T05:23:10;10.40;99.90
7646;DHT22;3864;48.180;14.178;2023-08-07T05:25:37;10.40;99.90
7646;DHT22;3864;48.180;14.178;2023-08-07T05:28:04;10.40;99.90
7646;DHT22;3864;48.180;14.178;2023-08-07T05:30:32;10.40;99.90
7646;DHT22;3864;48.180;14.178;2023-08-07T05:32:59;10.40;99.90
7646;DHT22;3864;48.180;14.178;2023-08-07T05:35:26;10.40;99.90
7646;DHT22;3864;48.180;14.178;2023-08-07T05:37:54;10.30;99.90
7646;DHT22;3864;48.180;14.178;2023-08-07T05:40:21;10.40;99.90
7646;DHT22;3864;48.180;14.178;2023-08-07T05:42:49;10.40;99.90
7646;DHT22;3864;48.180;14.178;2023-08-07T05:45:16;10.40;99.90
7646;DHT22;3864;48.180;14.178;2023-08-07T05:47:43;10.40;99.90
7646;DHT22;3864;48.180;14.178;2023-08-07T05:50:10;10.40;99.90
7646;DHT22;3864;48.180;14.178;2023-08-07T05:52:37;10.40;99.90
7646;DHT22;3864;48.180;14.178;2023-08-07T05:55:07;10.40;99.90
7646;DHT22;3864;48.180;14.178;2023-08-07T05:57:34;10.50;99.90
7646;DHT22;3864;48.180;14.178;2023-08-07T06:00:02;10.50;99.90
7646;DHT22;3864;48.180;14.178;2023-08-07T06:02:29;10.50;99.90
7646;DHT22;3864;48.180;14.178;2023-08-07T06:04:56;10.50;99.90
7646;DHT22;3864;48.180;14.178;2023-08-07T06:07:23;10.50;99.90
7646;DHT22;3864;48.180;14.178;2023-08-07T06:09:51;10.50;99.90
7646;DHT22;3864;48.180;14.178;2023-08-07T06:12:19;10.60;99.90
7646;DHT22;3864;48.180;14.178;2023-08-07T06:14:46;10.60;99.90
7646;DHT22;3864;48.180;14.178;2023-08-07T06:17:21;10.60;99.90
7646;DHT22;3864;48.180;14.178;2023-08-07T06:19:48;10.70;99.90
7646;DHT22;3864;48.180;14.178;2023-08-07T06:22:15;10.70;99.90
7646;DHT22;3864;48.180;14.178;2023-08-07T06:24:42;10.70;99.90
7646;DHT22;3864;48.180;14.178;2023-08-07T06:27:09;10.70;99.90
7646;DHT22;3864;48.180;14.178;2023-08-07T06:29:38;10.80;99.90
7646;DHT22;3864;48.180;14.178;2023-08-07T06:32:06;10.80;99.90
7646;DHT22;3864;48.180;14.178;2023-08-07T06:34:36;10.80;99.90
7646;DHT22;3864;48.180;14.178;2023-08-07T06:37:04;10.80;99.90
7646;DHT22;3864;48.180;14.178;2023-08-07T06:39:31;10.70;99.90
7646;DHT22;3864;48.180;14.178;2023-08-07T06:41:58;10.70;99.90
7646;DHT22;3864;48.180;14.178;2023-08-07T06:44:25;10.70;99.90
7646;DHT22;3864;48.180;14.178;2023-08-07T06:46:54;10.70;99.90
7646;DHT22;3864;48.180;14.178;2023-08-07T06:49:21;10.70;99.90
7646;DHT22;3864;48.180;14.178;2023-08-07T06:51:49;10.70;99.90
7646;DHT22;3864;48.180;14.178;2023-08-07T06:54:16;10.70;99.90
7646;DHT22;3864;48.180;14.178;2023-08-07T06:56:43;10.70;99.90
7646;DHT22;3864;48.180;14.178;2023-08-07T06:59:10;10.70;99.90
7646;DHT22;3864;48.180;14.178;2023-08-07T07:01:37;10.70;99.90
7646;DHT22;3864;48.180;14.178;2023-08-07T07:04:06;10.70;99.90
7646;DHT22;3864;48.180;14.178;2023-08-07T07:06:33;10.80;99.90
7646;DHT22;3864;48.180;14.178;2023-08-07T07:09:00;10.80;99.90
7646;DHT22;3864;48.180;14.178;2023-08-07T07:11:27;10.80;99.90
7646;DHT22;3864;48.180;14.178;2023-08-07T07:13:54;10.80;99.90
7646;DHT22;3864;48.180;14.178;2023-08-07T07:16:21;10.80;99.90
7646;DHT22;3864;48.180;14.178;2023-08-07T07:18:49;10.80;99.90
7646;DHT22;3864;48.180;14.178;2023-08-07T07:21:18;10.90;99.90
7646;DHT22;3864;48.180;14.178;2023-08-07T07:23:46;10.90;99.90
7646;DHT22;3864;48.180;14.178;2023-08-07T07:26:13;10.90;99.90
7646;DHT22;3864;48.180;14.178;2023-08-07T07:28:40;11.00;99.90
7646;DHT22;3864;48.180;14.178;2023-08-07T07:31:07;11.00;99.90
7646;DHT22;3864;48.180;14.178;2023-08-07T07:33:37;11.00;99.90
7646;DHT22;3864;48.180;14.178;2023-08-07T07:36:04;11.10;99.90
7646;DHT22;3864;48.180;14.178;2023-08-07T07:38:34;11.10;99.90
7646;DHT22;3864;48.180;14.178;2023-08-07T07:41:01;11.10;99.90
7646;DHT22;3864;48.180;14.178;2023-08-07T07:43:28;11.10;99.90
7646;DHT22;3864;48.180;14.178;2023-08-07T07:45:55;11.10;99.90
7646;DHT22;3864;48.180;14.178;2023-08-07T07:48:22;11.20;99.90
7646;DHT22;3864;48.180;14.178;2023-08-07T07:50:49;11.20;99.90
7646;DHT22;3864;48.180;14.178;2023-08-07T07:53:18;11.20;99.90
7646;DHT22;3864;48.180;14.178;2023-08-07T07:55:48;11.20;99.90
7646;DHT22;3864;48.180;14.178;2023-08-07T07:58:15;11.30;99.90
7646;DHT22;3864;48.180;14.178;2023-08-07T08:00:42;11.30;99.90
7646;DHT22;3864;48.180;14.178;2023-08-07T08:03:09;11.30;99.90
7646;DHT22;3864;48.180;14.178;2023-08-07T08:05:38;11.30;99.90
7646;DHT22;3864;48.180;14.178;2023-08-07T08:08:05;11.30;99.90
7646;DHT22;3864;48.180;14.178;2023-08-07T08:10:33;11.30;99.90
7646;DHT22;3864;48.180;14.178;2023-08-07T08:13:02;11.40;99.90
7646;DHT22;3864;48.180;14.178;2023-08-07T08:15:29;11.40;99.90
7646;DHT22;3864;48.180;14.178;2023-08-07T08:17:57;11.50;99.90
7646;DHT22;3864;48.180;14.178;2023-08-07T08:20:24;11.50;99.90
7646;DHT22;3864;48.180;14.178;2023-08-07T08:22:51;11.40;99.90
7646;DHT22;3864;48.180;14.178;2023-08-07T08:25:18;11.50;99.90
7646;DHT22;3864;48.180;14.178;2023-08-07T08:27:45;11.50;99.90
7646;DHT22;3864;48.180;14.178;2023-08-07T08:30:14;11.50;99.90
7646;DHT22;3864;48.180;14.178;2023-08-07T08:32:42;11.50;99.90
7646;DHT22;3864;48.180;14.178;2023-08-07T08:35:09;11.50;99.90
7646;DHT22;3864;48.180;14.178;2023-08-07T08:37:37;11.50;99.90
7646;DHT22;3864;48.180;14.178;2023-08-07T08:40:05;11.50;99.90
7646;DHT22;3864;48.180;14.178;2023-08-07T08:42:34;11.50;99.90
7646;DHT22;3864;48.180;14.178;2023-08-07T08:45:02;11.50;99.90
7646;DHT22;3864;48.180;14.178;2023-08-07T08:47:32;11.50;99.90
7646;DHT22;3864;48.180;14.178;2023-08-07T08:50:02;11.50;99.90
7646;DHT22;3864;48.180;14.178;2023-08-07T08:52:31;11.40;99.90
7646;DHT22;3864;48.180;14.178;2023-08-07T08:54:59;11.50;99.90
7646;DHT22;3864;48.180;14.178;2023-08-07T08:57:26;11.50;99.90
7646;DHT22;3864;48.180;14.178;2023-08-07T08:59:55;11.50;99.90
7646;DHT22;3864;48.180;14.178;2023-08-07T09:02:23;11.50;99.90
7646;DHT22;3864;48.180;14.178;2023-08-07T09:04:51;11.60;99.90
7646;DHT22;3864;48.180;14.178;2023-08-07T09:07:20;11.60;99.90
7646;DHT22;3864;48.180;14.178;2023-08-07T09:09:49;11.60;99.90
7646;DHT22;3864;48.180;14.178;2023-08-07T09:12:20;11.70;99.90
7646;DHT22;3864;48.180;14.178;2023-08-07T09:14:52;11.70;99.90
7646;DHT22;3864;48.180;14.178;2023-08-07T09:17:21;11.80;99.90
7646;DHT22;3864;48.180;14.178;2023-08-07T09:19:52;11.80;99.90
7646;DHT22;3864;48.180;14.178;2023-08-07T09:22:20;11.90;99.90
7646;DHT22;3864;48.180;14.178;2023-08-07T09:24:47;11.80;99.90
7646;DHT22;3864;48.180;14.178;2023-08-07T09:27:15;11.70;99.90
7646;DHT22;3864;48.180;14.178;2023-08-07T09:29:43;11.70;99.90
7646;DHT22;3864;48.180;14.178;2023-08-07T09:32:12;11.70;99.90
7646;DHT22;3864;48.180;14.178;2023-08-07T09:34:39;11.70;99.90
7646;DHT22;3864;48.180;14.178;2023-08-07T09:37:09;11.70;99.90
7646;DHT22;3864;48.180;14.178;2023-08-07T09:39:36;11.70;99.90
7646;DHT22;3864;48.180;14.178;2023-08-07T09:42:04;11.70;99.90
7646;DHT22;3864;48.180;14.178;2023-08-07T09:44:35;11.80;99.90
7646;DHT22;3864;48.180;14.178;2023-08-07T09:47:11;11.80;99.90
7646;DHT22;3864;48.180;14.178;2023-08-07T09:49:39;11.80;99.90
7646;DHT22;3864;48.180;14.178;2023-08-07T09:52:09;11.80;99.90
7646;DHT22;3864;48.180;14.178;2023-08-07T09:54:38;11.90;99.90
7646;DHT22;3864;48.180;14.178;2023-08-07T09:57:06;11.90;99.90
7646;DHT22;3864;48.180;14.178;2023-08-07T09:59:34;11.90;99.90
7646;DHT22;3864;48.180;14.178;2023-08-07T10:02:02;11.90;99.90
7646;DHT22;3864;48.180;14.178;2023-08-07T10:04:30;12.00;99.90
7646;DHT22;3864;48.180;14.178;2023-08-07T10:06:57;12.00;99.90
7646;DHT22;3864;48.180;14.178;2023-08-07T10:09:26;12.10;99.90
7646;DHT22;3864;48.180;14.178;2023-08-07T10:11:54;12.10;99.90
7646;DHT22;3864;48.180;14.178;2023-08-07T10:14:22;12.20;99.90
7646;DHT22;3864;48.180;14.178;2023-08-07T10:16:50;12.30;99.90
7646;DHT22;3864;48.180;14.178;2023-08-07T10:19:17;12.30;99.90
7646;DHT22;3864;48.180;14.178;2023-08-07T10:21:45;12.40;99.90
7646;DHT22;3864;48.180;14.178;2023-08-07T10:24:14;12.40;99.90
7646;DHT22;3864;48.180;14.178;2023-08-07T10:26:44;12.50;99.90
7646;DHT22;3864;48.180;14.178;2023-08-07T10:29:14;12.60;99.90
7646;DHT22;3864;48.180;14.178;2023-08-07T10:31:43;12.60;99.90
7646;DHT22;3864;48.180;14.178;2023-08-07T10:34:11;12.80;99.90
7646;DHT22;3864;48.180;14.178;2023-08-07T10:36:39;12.80;99.90
7646;DHT22;3864;48.180;14.178;2023-08-07T10:39:07;12.90;99.90
7646;DHT22;3864;48.180;14.178;2023-08-07T10:41:38;13.00;99.90
7646;DHT22;3864;48.180;14.178;2023-08-07T10:44:18;13.00;99.90
7646;DHT22;3864;48.180;14.178;2023-08-07T10:46:51;13.10;99.90
7646;DHT22;3864;48.180;14.178;2023-08-07T10:49:31;13.10;99.90
7646;DHT22;3864;48.180;14.178;2023-08-07T10:51:59;13.10;99.90
7646;DHT22;3864;48.180;14.178;2023-08-07T10:54:28;13.20;99.90
7646;DHT22;3864;48.180;14.178;2023-08-07T10:56:56;13.30;99.90
7646;DHT22;3864;48.180;14.178;2023-08-07T10:59:29;13.40;99.90
7646;DHT22;3864;48.180;14.178;2023-08-07T11:01:59;13.40;99.90
7646;DHT22;3864;48.180;14.178;2023-08-07T11:04:26;13.50;99.90
7646;DHT22;3864;48.180;14.178;2023-08-07T11:06:54;13.50;99.90
7646;DHT22;3864;48.180;14.178;2023-08-07T11:09:22;13.60;99.90
7646;DHT22;3864;48.180;14.178;2023-08-07T11:11:49;13.70;99.90
7646;DHT22;3864;48.180;14.178;2023-08-07T11:14:18;13.70;99.90
7646;DHT22;3864;48.180;14.178;2023-08-07T11:16:48;13.80;99.90
7646;DHT22;3864;48.180;14.178;2023-08-07T11:19:17;13.80;99.90
7646;DHT22;3864;48.180;14.178;2023-08-07T11:21:45;13.80;99.90
7646;DHT22;3864;48.180;14.178;2023-08-07T11:24:13;13.90;99.90
7646;DHT22;3864;48.180;14.178;2023-08-07T11:26:42;14.00;99.90
7646;DHT22;3864;48.180;14.178;2023-08-07T11:29:11;14.10;99.90
7646;DHT22;3864;48.180;14.178;2023-08-07T11:31:42;14.10;99.90
7646;DHT22;3864;48.180;14.178;2023-08-07T11:34:11;14.10;99.90
7646;DHT22;3864;48.180;14.178;2023-08-07T11:36:41;14.20;99.90
7646;DHT22;3864;48.180;14.178;2023-08-07T11:39:08;14.10;99.90
7646;DHT22;3864;48.180;14.178;2023-08-07T11:41:35;14.00;99.90
7646;DHT22;3864;48.180;14.178;2023-08-07T11:44:03;14.00;99.90
7646;DHT22;3864;48.180;14.178;2023-08-07T11:46:30;14.00;99.90
7646;DHT22;3864;48.180;14.178;2023-08-07T11:48:57;13.90;99.90
7646;DHT22;3864;48.180;14.178;2023-08-07T11:51:28;13.90;99.90
7646;DHT22;3864;48.180;14.178;2023-08-07T11:53:55;13.90;99.90
7646;DHT22;3864;48.180;14.178;2023-08-07T11:56:24;13.90;99.90
7646;DHT22;3864;48.180;14.178;2023-08-07T11:58:52;13.90;99.90
7646;DHT22;3864;48.180;14.178;2023-08-07T12:01:21;13.90;99.90
7646;DHT22;3864;48.180;14.178;2023-08-07T12:03:53;14.10;99.90
7646;DHT22;3864;48.180;14.178;2023-08-07T12:06:21;14.30;99.90
7646;DHT22;3864;48.180;14.178;2023-08-07T12:08:53;14.40;99.90
7646;DHT22;3864;48.180;14.178;2023-08-07T12:11:20;14.60;99.90
7646;DHT22;3864;48.180;14.178;2023-08-07T12:13:48;14.50;99.90
7646;DHT22;3864;48.180;14.178;2023-08-07T12:16:15;14.60;99.90
7646;DHT22;3864;48.180;14.178;2023-08-07T12:18:44;14.60;99.90
7646;DHT22;3864;48.180;14.178;2023-08-07T12:21:16;14.60;99.90
7646;DHT22;3864;48.180;14.178;2023-08-07T12:23:47;14.70;99.90
7646;DHT22;3864;48.180;14.178;2023-08-07T12:26:19;14.90;99.90
7646;DHT22;3864;48.180;14.178;2023-08-07T12:28:46;15.00;99.90
7646;DHT22;3864;48.180;14.178;2023-08-07T12:31:15;15.10;99.90
7646;DHT22;3864;48.180;14.178;2023-08-07T12:33:43;15.30;99.90
7646;DHT22;3864;48.180;14.178;2023-08-07T12:36:10;15.30;99.90
7646;DHT22;3864;48.180;14.178;2023-08-07T12:38:39;15.50;99.90
7646;DHT22;3864;48.180;14.178;2023-08-07T12:41:06;15.70;99.90
7646;DHT22;3864;48.180;14.178;2023-08-07T12:43:34;15.70;99.90
7646;DHT22;3864;48.180;14.178;2023-08-07T12:46:01;15.60;99.90
7646;DHT22;3864;48.180;14.178;2023-08-07T12:48:29;15.40;99.90
7646;DHT22;3864;48.180;14.178;2023-08-07T12:50:56;15.20;99.90
7646;DHT22;3864;48.180;14.178;2023-08-07T12:53:23;15.30;99.90
7646;DHT22;3864;48.180;14.178;2023-08-07T12:55:50;15.20;99.90
7646;DHT22;3864;48.180;14.178;2023-08-07T12:58:17;15.30;99.90
7646;DHT22;3864;48.180;14.178;2023-08-07T13:00:49;15.40;99.90
7646;DHT22;3864;48.180;14.178;2023-08-07T13:03:17;15.60;99.90
7646;DHT22;3864;48.180;14.178;2023-08-07T13:05:44;15.80;99.90
7646;DHT22;3864;48.180;14.178;2023-08-07T13:08:11;16.00;99.90
7646;DHT22;3864;48.180;14.178;2023-08-07T13:10:42;16.10;99.90
7646;DHT22;3864;48.180;14.178;2023-08-07T13:13:09;16.00;99.90
7646;DHT22;3864;48.180;14.178;2023-08-07T13:15:36;16.00;99.90
7646;DHT22;3864;48.180;14.178;2023-08-07T13:18:05;16.00;99.90
7646;DHT22;3864;48.180;14.178;2023-08-07T13:20:32;16.30;99.90
7646;DHT22;3864;48.180;14.178;2023-08-07T13:23:02;16.40;99.90
7646;DHT22;3864;48.180;14.178;2023-08-07T13:25:31;16.30;99.90
7646;DHT22;3864;48.180;14.178;2023-08-07T13:27:59;16.10;99.90
7646;DHT22;3864;48.180;14.178;2023-08-07T13:30:26;16.40;99.90
7646;DHT22;3864;48.180;14.178;2023-08-07T13:32:57;16.90;99.90
7646;DHT22;3864;48.180;14.178;2023-08-07T13:35:26;17.00;99.90
7646;DHT22;3864;48.180;14.178;2023-08-07T13:37:53;16.80;99.90
7646;DHT22;3864;48.180;14.178;2023-08-07T13:40:20;17.10;99.90
7646;DHT22;3864;48.180;14.178;2023-08-07T13:42:47;17.10;99.90
7646;DHT22;3864;48.180;14.178;2023-08-07T13:45:15;17.20;99.90
7646;DHT22;3864;48.180;14.178;2023-08-07T13:47:42;17.10;99.90
7646;DHT22;3864;48.180;14.178;2023-08-07T13:50:09;17.50;99.90
7646;DHT22;3864;48.180;14.178;2023-08-07T13:52:40;17.60;99.90
7646;DHT22;3864;48.180;14.178;2023-08-07T13:55:07;17.80;99.90
7646;DHT22;3864;48.180;14.178;2023-08-07T13:57:35;17.60;99.90
7646;DHT22;3864;48.180;14.178;2023-08-07T14:00:03;17.60;99.90
7646;DHT22;3864;48.180;14.178;2023-08-07T14:02:30;17.60;99.90
7646;DHT22;3864;48.180;14.178;2023-08-07T14:05:02;17.70;99.90
7646;DHT22;3864;48.180;14.178;2023-08-07T14:07:29;17.70;99.90
7646;DHT22;3864;48.180;14.178;2023-08-07T14:09:58;17.90;99.90
7646;DHT22;3864;48.180;14.178;2023-08-07T14:12:25;17.70;99.90
7646;DHT22;3864;48.180;14.178;2023-08-07T14:14:52;17.60;99.90
7646;DHT22;3864;48.180;14.178;2023-08-07T14:17:20;17.50;99.90
7646;DHT22;3864;48.180;14.178;2023-08-07T14:19:47;17.30;99.90
7646;DHT22;3864;48.180;14.178;2023-08-07T14:22:14;17.20;99.90
7646;DHT22;3864;48.180;14.178;2023-08-07T14:24:41;17.10;99.90
7646;DHT22;3864;48.180;14.178;2023-08-07T14:27:10;17.00;99.90
7646;DHT22;3864;48.180;14.178;2023-08-07T14:29:37;16.90;99.90
7646;DHT22;3864;48.180;14.178;2023-08-07T14:32:04;16.80;99.90
7646;DHT22;3864;48.180;14.178;2023-08-07T14:34:32;16.80;99.90
7646;DHT22;3864;48.180;14.178;2023-08-07T14:36:59;16.80;99.90
7646;DHT22;3864;48.180;14.178;2023-08-07T14:39:26;16.70;99.90
7646;DHT22;3864;48.180;14.178;2023-08-07T14:41:53;16.60;99.90
7646;DHT22;3864;48.180;14.178;2023-08-07T14:44:22;16.60;99.90
7646;DHT22;3864;48.180;14.178;2023-08-07T14:46:49;16.70;99.90
7646;DHT22;3864;48.180;14.178;2023-08-07T14:49:16;16.80;99.90
7646;DHT22;3864;48.180;14.178;2023-08-07T14:51:43;16.80;99.90
7646;DHT22;3864;48.180;14.178;2023-08-07T14:54:10;16.80;99.90
7646;DHT22;3864;48.180;14.178;2023-08-07T14:56:37;16.80;99.90
7646;DHT22;3864;48.180;14.178;2023-08-07T14:59:04;16.70;99.90
7646;DHT22;3864;48.180;14.178;2023-08-07T15:01:33;16.60;99.90
7646;DHT22;3864;48.180;14.178;2023-08-07T15:04:00;16.50;99.90
7646;DHT22;3864;48.180;14.178;2023-08-07T15:06:27;16.60;99.90
7646;DHT22;3864;48.180;14.178;2023-08-07T15:08:54;16.90;99.90
7646;DHT22;3864;48.180;14.178;2023-08-07T15:11:21;17.20;99.90
7646;DHT22;3864;48.180;14.178;2023-08-07T15:13:52;17.40;99.90
7646;DHT22;3864;48.180;14.178;2023-08-07T15:16:20;17.60;99.90
7646;DHT22;3864;48.180;14.178;2023-08-07T15:18:49;17.40;99.90
7646;DHT22;3864;48.180;14.178;2023-08-07T15:21:16;17.20;99.90
7646;DHT22;3864;48.180;14.178;2023-08-07T15:23:44;17.20;99.90
7646;DHT22;3864;48.180;14.178;2023-08-07T15:26:11;17.10;99.90
7646;DHT22;3864;48.180;14.178;2023-08-07T15:28:38;17.10;99.90
7646;DHT22;3864;48.180;14.178;2023-08-07T15:31:05;17.10;99.90
7646;DHT22;3864;48.180;14.178;2023-08-07T15:33:32;17.00;99.90
7646;DHT22;3864;48.180;14.178;2023-08-07T15:36:01;16.90;99.90
7646;DHT22;3864;48.180;14.178;2023-08-07T15:38:28;17.00;99.90
7646;DHT22;3864;48.180;14.178;2023-08-07T15:40:55;17.20;99.90
7646;DHT22;3864;48.180;14.178;2023-08-07T15:43:22;17.20;99.90
7646;DHT22;3864;48.180;14.178;2023-08-07T15:45:51;17.10;99.90
7646;DHT22;3864;48.180;14.178;2023-08-07T15:48:18;17.10;99.90